Time;durP1;ratioP1;P1;durP2;ratioP2;P2;SDS_P1;SDS_P2;PMS_P1;PMS_P2;Temp;Humidity;BMP_temperature;BMP_pressure;BME280_temperature;BME280_humidity;BME280_pressure;Samples;Min_cycle;Max_cycle;Signal;HPM_P1;HPM_P2
2021/03/13 04:32:16;;;;;;;2.53;2.03;;;;;;;11.99;48.38;97903.00;7444934;23;20261;-81
2021/03/13 04:35:37;;;;;;;3.00;2.20;;;;;;;12.21;47.75;97876.22;6826381;29;20215;-81
2021/03/13 04:39:00;;;;;;;6.67;3.50;;;;;;;12.15;47.51;97906.88;6845490;28;20624;-81
2021/03/13 04:42:22;;;;;;;4.83;2.53;;;;;;;11.96;47.98;97910.75;6844695;28;20227;-80
2021/03/13 04:45:44;;;;;;;3.60;3.27;;;;;;;11.46;49.34;97885.22;6835771;28;20214;-81
2021/03/13 04:49:07;;;;;;;3.53;1.90;;;;;;;11.64;49.18;97898.66;6839603;29;20572;-81
2021/03/13 04:52:29;;;;;;;3.63;1.70;;;;;;;12.39;48.19;97897.69;6843754;28;20701;-81
2021/03/13 04:55:50;;;;;;;2.47;2.00;;;;;;;12.13;48.09;97899.00;6844771;28;20238;-81
2021/03/13 04:59:11;;;;;;;2.67;1.47;;;;;;;12.04;48.58;97876.09;6844411;28;20222;-81
2021/03/13 05:02:32;;;;;;;3.40;2.00;;;;;;;12.29;47.82;97887.47;6843564;28;20707;-81
2021/03/13 05:05:54;;;;;;;3.90;1.60;;;;;;;12.20;48.51;97902.41;6843006;28;20211;-83
2021/03/13 05:09:16;;;;;;;2.27;1.43;;;;;;;11.65;49.00;97830.94;6843505;28;20264;-81
2021/03/13 05:12:37;;;;;;;3.20;1.90;;;;;;;12.08;48.70;97877.28;6847125;28;20237;-81
2021/03/13 05:15:59;;;;;;;5.40;1.83;;;;;;;12.06;48.51;97835.34;6842232;28;20616;-81
2021/03/13 05:19:20;;;;;;;2.57;2.10;;;;;;;12.05;48.60;97864.22;6843032;28;20202;-81
2021/03/13 05:22:46;;;;;;;4.17;2.13;;;;;;;12.10;48.39;97858.94;6842394;28;20230;-84
2021/03/13 05:26:07;;;;;;;2.20;1.73;;;;;;;12.23;48.65;97876.78;6841872;29;20191;-81
2021/03/13 05:29:28;;;;;;;4.50;3.10;;;;;;;12.55;47.55;97864.47;6818782;29;20562;-81
2021/03/13 05:32:49;;;;;;;3.03;1.80;;;;;;;12.19;48.07;97862.09;6842292;28;20237;-81
2021/03/13 05:36:11;;;;;;;8.93;7.30;;;;;;;12.66;46.82;97829.28;6842047;29;20205;-81
2021/03/13 05:39:33;;;;;;;2.83;1.83;;;;;;;12.54;47.54;97843.91;6842511;28;20237;-81
2021/03/13 05:42:54;;;;;;;2.53;1.63;;;;;;;12.54;46.82;97844.75;6842744;28;20604;-81
2021/03/13 05:46:18;;;;;;;2.83;2.07;;;;;;;12.05;47.79;97822.91;6841335;28;20198;-82
2021/03/13 05:49:42;;;;;;;4.13;1.60;;;;;;;12.18;47.74;97849.66;6842330;28;20218;-81
2021/03/13 05:53:04;;;;;;;2.10;1.60;;;;;;;12.53;47.18;97851.22;6814902;29;20242;-81
2021/03/13 05:56:27;;;;;;;2.67;1.70;;;;;;;12.73;46.51;97832.66;6823915;29;20659;-80
2021/03/13 05:59:49;;;;;;;2.20;1.63;;;;;;;12.19;47.09;97854.81;6845535;28;20234;-81
2021/03/13 06:03:10;;;;;;;2.27;1.53;;;;;;;11.79;47.35;97753.19;6845184;28;20232;-80
2021/03/13 06:06:36;;;;;;;2.60;1.97;;;;;;;12.70;46.50;97826.91;6844217;29;20202;-81
2021/03/13 06:09:57;;;;;;;3.27;2.60;;;;;;;12.44;47.26;97835.59;6845320;28;20206;-80
2021/03/13 06:13:19;;;;;;;5.03;2.53;;;;;;;12.16;47.60;97838.28;6844736;28;20230;-80
2021/03/13 06:16:41;;;;;;;8.93;3.47;;;;;;;12.53;46.88;97804.41;6844702;29;20656;-81
2021/03/13 06:20:02;;;;;;;3.03;1.93;;;;;;;12.79;45.72;97793.00;6843279;28;20207;-82
2021/03/13 06:23:33;;;;;;;3.93;2.50;;;;;;;12.09;47.43;97778.94;6844317;28;20230;-81
2021/03/13 06:26:55;;;;;;;3.10;2.20;;;;;;;12.28;47.37;97814.75;6840661;29;20198;-81
2021/03/13 06:30:18;;;;;;;1.90;1.80;;;;;;;12.72;46.23;97808.56;6840240;28;20258;-81
2021/03/13 06:33:40;;;;;;;1.97;1.60;;;;;;;13.09;45.10;97799.00;6849819;28;20215;-81
2021/03/13 06:37:21;;;;;;;3.47;1.80;;;;;;;13.07;44.50;97803.81;6822413;29;20206;-83
2021/03/13 06:40:42;;;;;;;2.57;1.70;;;;;;;12.58;45.68;97788.28;6849235;29;20258;-81
2021/03/13 06:44:14;;;;;;;1.80;1.63;;;;;;;12.57;46.00;97779.34;6851016;28;20218;-81
2021/03/13 06:47:38;;;;;;;3.20;1.83;;;;;;;12.62;45.06;97797.56;6853839;28;20631;-82
2021/03/13 06:51:22;;;;;;;1.67;1.50;;;;;;;12.79;45.25;97793.00;6844427;28;20247;-82
2021/03/13 06:54:43;;;;;;;3.83;1.77;;;;;;;13.01;45.02;97786.69;6833097;29;20223;-82
2021/03/13 06:58:10;;;;;;;2.60;1.70;;;;;;;13.16;44.45;97778.78;6830805;28;20222;-82
2021/03/13 07:01:32;;;;;;;1.97;1.70;;;;;;;13.83;43.30;97763.28;6844418;28;20234;-81
2021/03/13 07:05:06;;;;;;;3.37;1.40;;;;;;;13.62;43.42;97740.50;6829920;28;20213;-82
2021/03/13 07:08:28;;;;;;;4.27;2.97;;;;;;;13.05;44.36;97722.88;6831739;29;20195;-83
2021/03/13 07:11:49;;;;;;;5.00;3.20;;;;;;;13.05;44.41;97749.13;6847340;28;20274;-81
2021/03/13 07:15:17;;;;;;;6.37;3.47;;;;;;;14.22;41.67;97748.63;6840619;28;20251;-82
2021/03/13 07:18:38;;;;;;;6.17;2.97;;;;;;;13.65;42.37;97744.63;6835662;28;20208;-83
2021/03/13 07:22:01;;;;;;;8.97;2.77;;;;;;;13.89;42.39;97748.72;6837145;28;20232;-84
2021/03/13 07:25:23;;;;;;;2.40;1.70;;;;;;;13.50;42.05;97684.81;6848395;28;20581;-83
2021/03/13 07:28:45;;;;;;;1.47;1.37;;;;;;;14.24;41.29;97733.75;6849225;28;20208;-83
2021/03/13 07:32:09;;;;;;;2.80;1.70;;;;;;;14.43;40.92;97728.78;6846220;28;20229;-82
2021/03/13 07:35:34;;;;;;;1.70;1.57;;;;;;;14.44;40.39;97725.00;6845677;28;20206;-82
2021/03/13 07:39:01;;;;;;;1.70;1.50;;;;;;;13.99;41.54;97695.47;6846816;29;20725;-82
2021/03/13 07:42:23;;;;;;;2.20;1.67;;;;;;;14.30;40.67;97710.22;6844371;28;20644;-81
2021/03/13 07:45:46;;;;;;;2.97;1.77;;;;;;;14.53;40.22;97677.38;6844646;29;20215;-80
2021/03/13 07:49:10;;;;;;;1.70;1.50;;;;;;;15.55;38.85;97684.13;6846477;29;20206;-80
2021/03/13 07:52:31;;;;;;;1.43;1.13;;;;;;;15.11;39.59;97699.03;6847005;28;20225;-81
2021/03/13 07:55:54;;;;;;;2.37;1.57;;;;;;;14.54;39.94;97692.56;6845719;29;20223;-82
2021/03/13 07:59:40;;;;;;;3.00;1.63;;;;;;;13.88;41.28;97696.44;6844539;29;20213;-82
2021/03/13 08:03:01;;;;;;;2.67;1.60;;;;;;;13.68;42.26;97709.72;6844412;28;20587;-82
2021/03/13 08:06:22;;;;;;;3.27;1.60;;;;;;;14.18;41.23;97694.09;6843873;29;20208;-82
2021/03/13 08:09:44;;;;;;;2.30;1.40;;;;;;;14.20;40.55;97683.00;6837945;29;20205;-80
2021/03/13 08:13:06;;;;;;;2.97;1.90;;;;;;;14.99;39.52;97685.63;6847430;28;20233;-82
2021/03/13 08:16:38;;;;;;;2.47;1.50;;;;;;;13.49;42.01;97712.97;6842025;28;20201;-81
2021/03/13 08:20:05;;;;;;;2.33;1.47;;;;;;;14.28;40.70;97687.97;6843560;28;20284;-81
2021/03/13 08:23:26;;;;;;;1.33;1.17;;;;;;;13.28;41.68;97686.69;6843373;29;20229;-81
2021/03/13 08:26:59;;;;;;;2.63;1.50;;;;;;;13.73;40.66;97660.19;6836888;28;20201;-82
2021/03/13 08:30:23;;;;;;;2.20;1.40;;;;;;;13.60;40.42;97647.88;6839746;28;20211;-82
2021/03/13 08:33:44;;;;;;;1.63;1.17;;;;;;;13.83;40.27;97673.88;6830905;28;20243;-82
2021/03/13 08:37:15;;;;;;;2.30;1.30;;;;;;;14.36;38.17;97650.38;6841457;28;20232;-83
2021/03/13 08:40:43;;;;;;;1.33;1.33;;;;;;;14.31;38.55;97650.31;6834929;28;20227;-82
2021/03/13 08:44:04;;;;;;;1.37;1.00;;;;;;;14.75;37.67;97630.09;6831489;28;20209;-82
2021/03/13 08:47:41;;;;;;;1.40;1.30;;;;;;;14.33;39.04;97637.31;6838447;29;20214;-81
2021/03/13 08:51:16;;;;;;;2.20;1.07;;;;;;;14.74;36.98;97644.72;6826806;28;20233;-81
2021/03/13 08:54:48;;;;;;;4.17;2.10;;;;;;;14.67;37.18;97648.72;6840105;28;20231;-82
2021/03/13 08:58:09;;;;;;;2.70;1.47;;;;;;;15.33;35.16;97610.94;6832202;28;20225;-81
2021/03/13 09:01:30;;;;;;;10.70;3.13;;;;;;;15.05;36.51;97629.50;6842939;28;20252;-82
2021/03/13 09:04:55;;;;;;;28.30;8.07;;;;;;;14.52;36.58;97613.34;6842350;28;20210;-81
2021/03/13 09:08:19;;;;;;;34.60;8.20;;;;;;;14.29;36.46;97595.53;6823966;29;20215;-80
2021/03/13 09:11:41;;;;;;;6.53;2.53;;;;;;;13.64;37.35;97591.31;6823992;28;20236;-80
2021/03/13 09:15:05;;;;;;;2.27;1.67;;;;;;;14.14;36.41;97589.13;6838603;28;20264;-79
2021/03/13 09:18:26;;;;;;;3.43;1.67;;;;;;;13.49;37.69;97585.72;6840748;28;20205;-80
2021/03/13 09:21:50;;;;;;;2.53;1.60;;;;;;;14.30;36.57;97550.25;6841317;28;20239;-79
2021/03/13 09:25:14;;;;;;;2.33;1.53;;;;;;;14.13;36.07;97568.50;6839898;28;20262;-80
2021/03/13 09:28:35;;;;;;;2.73;1.60;;;;;;;14.39;36.01;97560.38;6839987;28;20210;-79
2021/03/13 09:31:57;;;;;;;2.43;1.47;;;;;;;14.83;35.52;97556.34;6838964;28;20234;-81
2021/03/13 09:35:22;;;;;;;3.23;1.83;;;;;;;15.24;35.30;97549.22;6836377;28;20210;-79
2021/03/13 09:38:55;;;;;;;3.03;1.53;;;;;;;14.18;36.44;97553.13;6830936;29;20212;-81
2021/03/13 09:42:17;;;;;;;1.50;1.30;;;;;;;14.79;35.58;97535.41;6839126;28;20222;-80
2021/03/13 09:45:38;;;;;;;2.03;1.83;;;;;;;15.31;35.27;97526.19;6840204;29;20204;-82
2021/03/13 09:48:59;;;;;;;10.50;2.80;;;;;;;15.53;35.10;97539.59;6840495;29;20201;-80
2021/03/13 09:52:25;;;;;;;2.13;1.40;;;;;;;15.48;34.10;97520.56;6838593;29;20243;-79
2021/03/13 09:55:48;;;;;;;5.60;1.73;;;;;;;15.57;34.11;97536.06;6839926;29;20201;-79
2021/03/13 09:59:09;;;;;;;2.03;1.47;;;;;;;15.58;33.89;97542.34;6840200;29;20206;-78
2021/03/13 10:02:30;;;;;;;1.80;1.67;;;;;;;15.19;34.51;97531.03;6838637;28;20233;-79
2021/03/13 10:05:53;;;;;;;2.60;1.60;;;;;;;15.25;35.73;97524.53;6827351;28;20211;-79
2021/03/13 10:09:14;;;;;;;1.60;1.13;;;;;;;14.71;36.83;97536.75;6825696;29;20206;-80
2021/03/13 10:12:42;;;;;;;3.10;1.60;;;;;;;14.69;36.16;97525.31;6845540;28;20226;-79
2021/03/13 10:16:03;;;;;;;2.17;1.57;;;;;;;14.53;36.76;97506.50;6846743;28;20224;-80
2021/03/13 10:19:35;;;;;;;1.53;1.30;;;;;;;15.43;35.98;97518.66;6839405;29;20589;-80
2021/03/13 10:23:03;;;;;;;1.70;1.53;;;;;;;15.19;35.92;97520.16;6846533;29;20227;-81
2021/03/13 10:26:27;;;;;;;2.67;1.50;;;;;;;15.33;35.49;97512.38;6844853;28;20205;-80
2021/03/13 10:30:03;;;;;;;2.97;1.30;;;;;;;15.09;36.45;97503.81;6820091;29;20510;-83
2021/03/13 10:33:31;;;;;;;2.33;1.33;;;;;;;15.42;35.02;97491.75;6821600;29;20237;-81
2021/03/13 10:36:52;;;;;;;4.97;1.57;;;;;;;15.02;36.42;97497.00;6837464;29;20206;-81
2021/03/13 10:40:32;;;;;;;1.13;1.10;;;;;;;15.05;36.05;97489.16;6840447;28;20209;-80
2021/03/13 10:43:54;;;;;;;2.30;1.30;;;;;;;14.77;36.46;97491.47;6843088;29;20237;-80
2021/03/13 10:47:29;;;;;;;1.63;1.27;;;;;;;13.83;37.82;97430.06;6857001;23;20247;-76
2021/03/13 10:50:50;;;;;;;1.23;1.13;;;;;;;13.91;37.21;97381.63;6841375;29;20220;-76
2021/03/13 10:54:22;;;;;;;2.20;2.00;;;;;;;14.31;37.00;97451.56;6831142;29;20237;-75
2021/03/13 10:58:01;;;;;;;1.77;1.50;;;;;;;14.82;36.28;97488.78;6843589;28;20210;-71
2021/03/13 11:01:22;;;;;;;1.20;1.20;;;;;;;14.83;36.92;97477.66;6839239;28;20208;-76
2021/03/13 11:04:44;;;;;;;2.10;1.27;;;;;;;14.46;36.65;97389.31;6838912;28;20207;-76
2021/03/13 11:08:05;;;;;;;2.37;1.47;;;;;;;14.39;37.31;97424.00;6838948;28;20205;-75
2021/03/13 11:11:28;;;;;;;2.67;1.27;;;;;;;14.54;36.51;97386.91;6839019;29;20215;-76
2021/03/13 11:14:49;;;;;;;1.37;1.27;;;;;;;15.14;35.85;97455.00;6837756;29;20236;-75
2021/03/13 11:18:11;;;;;;;4.83;2.30;;;;;;;14.62;36.73;97442.56;6837824;28;20210;-76
2021/03/13 11:21:34;;;;;;;1.80;1.70;;;;;;;14.70;35.75;97368.81;6838644;28;20227;-76
2021/03/13 11:24:56;;;;;;;1.70;1.53;;;;;;;15.55;35.14;97439.63;6838589;28;20256;-76
2021/03/13 11:28:17;;;;;;;1.63;1.43;;;;;;;15.16;35.01;97408.56;6838383;28;20686;-74
2021/03/13 11:31:39;;;;;;;1.73;1.60;;;;;;;14.48;35.81;97341.03;6838914;28;20206;-74
2021/03/13 11:35:00;;;;;;;1.73;1.43;;;;;;;14.70;35.35;97395.94;6826593;28;20234;-74
2021/03/13 11:38:22;;;;;;;4.37;2.60;;;;;;;15.27;34.80;97411.03;6837548;28;20210;-74
2021/03/13 11:41:43;;;;;;;2.47;1.40;;;;;;;15.40;35.10;97360.84;6838189;29;20209;-74
2021/03/13 11:45:06;;;;;;;1.53;1.13;;;;;;;15.20;35.12;97421.34;6832509;28;20215;-73
2021/03/13 11:48:27;;;;;;;4.10;1.63;;;;;;;14.81;34.60;97349.56;6838010;28;20219;-74
2021/03/13 11:51:48;;;;;;;1.20;1.20;;;;;;;15.26;35.02;97431.13;6837702;28;20207;-73
2021/03/13 11:55:12;;;;;;;1.20;1.10;;;;;;;15.22;34.25;97342.34;6837690;29;20240;-74
2021/03/13 11:58:33;;;;;;;2.37;1.43;;;;;;;15.70;34.16;97407.84;6837738;29;20264;-73
2021/03/13 12:01:54;;;;;;;13.80;6.07;;;;;;;15.67;33.42;97345.91;6837385;28;20235;-73
2021/03/13 12:05:16;;;;;;;1.50;1.20;;;;;;;15.43;33.71;97363.84;6837168;29;20217;-73
2021/03/13 12:08:37;;;;;;;4.60;1.13;;;;;;;15.21;34.54;97436.53;6836341;28;20220;-74
2021/03/13 12:12:00;;;;;;;2.10;1.90;;;;;;;14.69;35.40;97445.84;6819210;28;20546;-73
2021/03/13 12:15:22;;;;;;;1.40;1.10;;;;;;;14.54;35.50;97411.31;6863666;28;20318;-73
2021/03/13 12:18:44;;;;;;;1.23;1.13;;;;;;;14.77;35.12;97380.22;6861993;28;20218;-73
2021/03/13 12:22:05;;;;;;;1.20;1.20;;;;;;;14.64;35.94;97394.28;6836969;29;20672;-76
2021/03/13 12:25:27;;;;;;;2.37;1.80;;;;;;;14.51;36.09;97400.19;6836252;28;20210;-75
2021/03/13 12:28:49;;;;;;;1.13;1.00;;;;;;;14.54;36.65;97380.66;6836349;28;20733;-75
2021/03/13 12:32:10;;;;;;;1.10;1.10;;;;;;;14.39;37.56;97454.63;6833286;28;20206;-75
2021/03/13 12:35:31;;;;;;;2.30;0.80;;;;;;;14.41;38.89;97466.03;6836558;28;20201;-75
2021/03/13 12:38:52;;;;;;;1.67;0.90;;;;;;;14.86;38.47;97444.56;6835368;29;20559;-75
2021/03/13 12:42:13;;;;;;;0.90;0.90;;;;;;;14.75;38.06;97369.63;6810538;29;20217;-75
2021/03/13 12:45:36;;;;;;;1.00;1.00;;;;;;;14.62;37.86;97336.78;6809876;29;20216;-75
2021/03/13 12:48:57;;;;;;;2.13;1.33;;;;;;;14.47;38.12;97337.53;6810488;29;20215;-74
2021/03/13 12:52:18;;;;;;;1.90;1.40;;;;;;;14.48;38.65;97360.84;6809917;29;20244;-73
2021/03/13 12:55:39;;;;;;;1.33;1.17;;;;;;;14.86;38.58;97447.28;6819541;28;20579;-74
2021/03/13 12:59:01;;;;;;;1.73;1.50;;;;;;;15.29;38.75;97465.88;6835763;28;20322;-75
2021/03/13 13:02:23;;;;;;;1.90;1.03;;;;;;;14.44;39.09;97403.13;6835738;28;20245;-75
2021/03/13 13:06:11;;;;;;;0.90;0.90;;;;;;;14.55;40.18;97402.09;7020522;27;20565;-74
2021/03/13 13:09:32;;;;;;;1.33;1.23;;;;;;;14.53;40.75;97419.72;7016282;28;20205;-73
2021/03/13 13:12:54;;;;;;;1.03;1.03;;;;;;;14.21;41.56;97419.81;7022039;28;20216;-73
2021/03/13 13:16:16;;;;;;;3.43;1.40;;;;;;;13.75;46.29;97482.81;7021603;28;20227;-71
2021/03/13 13:19:38;;;;;;;1.50;1.40;;;;;;;12.90;53.54;97575.69;7021513;28;20353;-72
2021/03/13 13:23:00;;;;;;;2.10;1.50;;;;;;;11.34;59.38;97603.75;7021932;28;20205;-74
2021/03/13 13:26:21;;;;;;;1.07;1.07;;;;;;;10.71;59.53;97635.25;7021270;28;20236;-71
2021/03/13 13:29:46;;;;;;;1.50;1.40;;;;;;;10.02;59.83;97533.63;7021011;28;20209;-71
2021/03/13 13:33:08;;;;;;;1.10;1.10;;;;;;;9.32;59.77;97556.00;7020445;28;20205;-72
2021/03/13 13:36:30;;;;;;;1.30;1.23;;;;;;;10.68;58.39;97635.75;7014971;28;20201;-71
2021/03/13 13:39:52;;;;;;;1.60;1.50;;;;;;;10.26;58.76;97617.97;7011900;28;20201;-71
2021/03/13 13:43:14;;;;;;;3.17;2.97;;;;;;;10.04;58.30;97541.50;7020510;28;20594;-71
2021/03/13 13:46:35;;;;;;;1.27;1.27;;;;;;;9.55;59.18;97548.03;7007058;28;20233;-72
2021/03/13 13:49:57;;;;;;;1.10;1.10;;;;;;;9.57;59.04;97521.69;7020725;28;20208;-72
2021/03/13 13:53:18;;;;;;;1.90;1.50;;;;;;;10.39;58.63;97590.84;7020867;28;20606;-72
2021/03/13 13:56:40;;;;;;;1.30;1.30;;;;;;;10.31;59.56;97618.94;7020339;28;20205;-72
2021/03/13 14:00:02;;;;;;;1.40;1.40;;;;;;;10.35;57.91;97620.13;7020623;28;20206;-72
2021/03/13 14:03:23;;;;;;;1.87;1.77;;;;;;;10.28;58.97;97629.38;7019435;28;20243;-71
2021/03/13 14:06:44;;;;;;;2.27;2.07;;;;;;;10.27;59.08;97635.81;6991998;28;20650;-71
2021/03/13 14:10:08;;;;;;;2.90;2.27;;;;;;;10.56;58.20;97635.72;6992592;28;20236;-71
2021/03/13 14:13:30;;;;;;;2.17;2.07;;;;;;;10.78;57.78;97644.03;6992300;28;20210;-71
2021/03/13 14:16:51;;;;;;;2.93;2.33;;;;;;;11.16;56.49;97661.38;6977411;28;20206;-71
2021/03/13 14:20:14;;;;;;;1.80;1.70;;;;;;;10.57;57.66;97609.59;6973793;28;20226;-72
2021/03/13 14:23:35;;;;;;;1.70;1.60;;;;;;;10.90;56.76;97618.72;6980878;28;20295;-72
2021/03/13 14:26:56;;;;;;;2.53;1.70;;;;;;;10.91;56.71;97592.56;6987881;28;20202;-72
2021/03/13 14:30:20;;;;;;;1.23;1.20;;;;;;;11.17;55.05;97654.13;6985694;28;20214;-72
2021/03/13 14:33:43;;;;;;;1.30;1.30;;;;;;;10.71;55.64;97622.63;6954337;28;20293;-72
2021/03/13 14:37:04;;;;;;;1.50;1.37;;;;;;;10.39;54.88;97596.25;6985108;28;20206;-72
2021/03/13 14:40:28;;;;;;;1.30;1.30;;;;;;;11.16;53.98;97639.78;6985564;28;20645;-70
2021/03/13 14:43:49;;;;;;;1.33;1.33;;;;;;;11.04;55.24;97652.47;6985173;28;20219;-70
2021/03/13 14:47:15;;;;;;;3.87;2.77;;;;;;;10.58;54.60;97584.28;6986098;28;20222;-71
2021/03/13 14:50:36;;;;;;;1.60;1.50;;;;;;;10.05;55.12;97632.00;6985662;28;20220;-71
2021/03/13 14:53:57;;;;;;;1.60;1.50;;;;;;;10.34;56.14;97685.81;6986400;28;20213;-69
2021/03/13 14:57:19;;;;;;;1.53;1.50;;;;;;;10.80;53.09;97664.31;6984158;28;20206;-71
2021/03/13 15:00:40;;;;;;;1.50;1.40;;;;;;;10.04;54.02;97566.53;6972830;28;20207;-71
2021/03/13 15:04:02;;;;;;;1.27;1.27;;;;;;;10.56;53.65;97630.31;6983308;28;20230;-71
2021/03/13 15:07:24;;;;;;;2.30;1.80;;;;;;;10.11;53.20;97502.63;6999858;28;20205;-71
2021/03/13 15:10:45;;;;;;;2.90;1.90;;;;;;;10.94;52.88;97649.56;6998673;28;20209;-72
2021/03/13 15:14:06;;;;;;;1.50;1.40;;;;;;;10.29;52.27;97595.97;7000142;28;20206;-72
2021/03/13 15:17:27;;;;;;;1.30;1.30;;;;;;;10.17;52.42;97577.09;6993391;28;20520;-72
2021/03/13 15:20:50;;;;;;;1.47;1.37;;;;;;;10.15;53.15;97606.16;6972153;28;20221;-72
2021/03/13 15:24:12;;;;;;;1.70;1.60;;;;;;;9.51;53.27;97528.00;6972363;28;20285;-72
2021/03/13 15:27:43;;;;;;;1.10;1.10;;;;;;;10.05;51.78;97490.09;6971172;28;20285;-72
2021/03/13 15:31:05;;;;;;;1.20;1.20;;;;;;;10.29;53.80;97622.91;6982304;28;20214;-72
2021/03/13 15:34:26;;;;;;;2.10;1.40;;;;;;;9.23;54.33;97476.72;6984990;28;20301;-72
2021/03/13 15:37:48;;;;;;;3.97;1.60;;;;;;;9.65;56.64;97590.53;6971646;28;20208;-72
2021/03/13 15:41:12;;;;;;;1.63;1.30;;;;;;;9.38;56.92;97547.03;6990977;28;20217;-77
2021/03/13 15:44:37;;;;;;;1.90;1.80;;;;;;;9.25;59.52;97570.56;7000187;28;20230;-75
2021/03/13 15:47:58;;;;;;;1.73;1.63;;;;;;;9.19;58.82;97606.44;6989081;28;20860;-76
2021/03/13 15:51:19;;;;;;;3.23;2.37;;;;;;;9.65;57.84;97585.97;6990891;28;20555;-75
2021/03/13 15:54:42;;;;;;;3.00;1.80;;;;;;;9.91;56.77;97582.03;6980666;28;20199;-76
2021/03/13 15:58:03;;;;;;;3.17;2.60;;;;;;;9.76;56.46;97574.44;6971714;28;20284;-76
2021/03/13 16:01:24;;;;;;;1.60;1.50;;;;;;;9.73;56.13;97537.19;6971546;28;20293;-74
2021/03/13 16:04:45;;;;;;;1.70;1.60;;;;;;;10.12;55.70;97597.72;6972076;28;20233;-75
2021/03/13 16:08:07;;;;;;;1.30;1.20;;;;;;;9.54;56.06;97556.31;6974196;28;20210;-75
2021/03/13 16:11:29;;;;;;;1.80;1.70;;;;;;;10.31;55.96;97607.34;6997270;28;20198;-73
2021/03/13 16:14:50;;;;;;;1.53;1.53;;;;;;;10.07;56.27;97603.78;6998340;28;20216;-73
2021/03/13 16:18:12;;;;;;;1.43;1.33;;;;;;;10.45;54.76;97600.69;6998388;28;20202;-75
2021/03/13 16:21:33;;;;;;;1.40;1.40;;;;;;;10.36;54.90;97596.69;6998492;28;20197;-74
2021/03/13 16:24:55;;;;;;;2.00;1.90;;;;;;;10.69;53.72;97592.34;6974148;28;20230;-73
2021/03/13 16:28:18;;;;;;;1.27;1.27;;;;;;;10.63;53.54;97590.59;6970927;28;20199;-74
2021/03/13 16:31:40;;;;;;;1.30;1.30;;;;;;;10.08;54.32;97518.44;6977144;28;20259;-72
2021/03/13 16:35:01;;;;;;;1.30;1.30;;;;;;;10.99;52.70;97570.66;6997542;28;20198;-74
2021/03/13 16:38:23;;;;;;;2.80;2.23;;;;;;;9.97;54.14;97479.66;6992720;28;20257;-73
2021/03/13 16:41:44;;;;;;;1.57;1.47;;;;;;;10.23;54.70;97567.28;6968926;28;20292;-73
2021/03/13 16:45:08;;;;;;;1.40;1.40;;;;;;;9.94;56.16;97570.84;6989379;28;20730;-73
2021/03/13 16:48:30;;;;;;;2.00;1.90;;;;;;;9.90;56.95;97586.63;6990506;28;20264;-73
2021/03/13 16:51:51;;;;;;;1.93;1.60;;;;;;;9.48;56.97;97563.44;6995228;28;20205;-73
2021/03/13 16:55:13;;;;;;;1.30;1.30;;;;;;;9.48;57.62;97570.69;6994079;28;20194;-72
2021/03/13 16:58:34;;;;;;;1.50;1.50;;;;;;;9.66;56.45;97586.78;6970010;28;20202;-73
2021/03/13 17:01:57;;;;;;;1.20;1.20;;;;;;;10.32;54.68;97588.25;6979989;28;20210;-73
2021/03/13 17:05:18;;;;;;;1.60;1.50;;;;;;;10.13;54.92;97593.97;6986244;28;20234;-73
2021/03/13 17:08:39;;;;;;;1.40;1.40;;;;;;;10.02;54.42;97570.47;6985171;28;20583;-73
2021/03/13 17:12:01;;;;;;;1.70;1.60;;;;;;;9.73;53.55;97475.28;6995995;28;20202;-73
2021/03/13 17:15:22;;;;;;;1.57;1.47;;;;;;;9.94;55.40;97584.28;6994835;28;20201;-73
2021/03/13 17:18:48;;;;;;;1.57;1.47;;;;;;;10.01;54.17;97563.47;6975457;28;20209;-73
2021/03/13 17:22:09;;;;;;;1.50;1.40;;;;;;;10.20;54.21;97571.25;6978570;28;20197;-73
2021/03/13 17:25:31;;;;;;;1.80;1.70;;;;;;;10.24;53.96;97577.84;6996359;28;20236;-73
2021/03/13 17:28:52;;;;;;;2.57;2.37;;;;;;;10.64;52.97;97586.84;6996688;28;20210;-73
2021/03/13 17:32:13;;;;;;;1.70;1.50;;;;;;;10.45;53.34;97585.31;6997230;28;20327;-73
2021/03/13 17:35:35;;;;;;;2.20;2.10;;;;;;;10.45;53.26;97600.69;6995863;28;20198;-73
2021/03/13 17:39:01;;;;;;;1.33;1.33;;;;;;;9.82;54.98;97600.44;6980792;28;20210;-73
2021/03/13 17:42:22;;;;;;;1.60;1.50;;;;;;;10.18;54.27;97602.16;6969659;28;20213;-74
2021/03/13 17:45:43;;;;;;;2.47;1.67;;;;;;;10.30;54.19;97619.16;6968208;28;20265;-73
2021/03/13 17:49:06;;;;;;;2.53;2.33;;;;;;;10.39;53.57;97609.72;6979969;28;20249;-73
2021/03/13 17:52:29;;;;;;;2.80;1.77;;;;;;;9.83;54.76;97609.31;6999829;28;20202;-73
2021/03/13 17:55:51;;;;;;;2.10;1.90;;;;;;;10.14;54.57;97600.97;6999454;28;20202;-73
2021/03/13 17:59:17;;;;;;;2.13;1.90;;;;;;;10.10;54.07;97592.53;7001579;28;20210;-73
2021/03/13 18:02:38;;;;;;;5.53;2.27;;;;;;;9.87;55.26;97618.56;7002189;28;20852;-73
2021/03/13 18:06:00;;;;;;;2.83;2.10;;;;;;;10.27;54.10;97611.56;6991879;28;20237;-74
2021/03/13 18:09:27;;;;;;;2.70;1.73;;;;;;;10.14;54.36;97630.59;6986978;28;20205;-74
2021/03/13 18:12:49;;;;;;;1.80;1.70;;;;;;;10.58;53.13;97625.50;6998550;28;20654;-73
2021/03/13 18:16:10;;;;;;;1.80;1.70;;;;;;;10.92;52.12;97642.78;6997817;28;20229;-73
2021/03/13 18:19:32;;;;;;;2.70;1.70;;;;;;;10.66;52.83;97645.91;7000839;28;20208;-74
2021/03/13 18:22:53;;;;;;;3.73;2.37;;;;;;;10.55;52.19;97649.41;6987359;28;20214;-74
2021/03/13 18:26:16;;;;;;;2.73;1.93;;;;;;;11.00;51.62;97672.91;6974122;28;20565;-73
2021/03/13 18:29:39;;;;;;;2.73;1.93;;;;;;;10.38;52.49;97668.16;6999637;28;20777;-73
2021/03/13 18:33:00;;;;;;;3.73;1.90;;;;;;;11.03;50.90;97668.91;7000299;28;20259;-73
2021/03/13 18:36:22;;;;;;;2.00;1.90;;;;;;;10.44;52.65;97683.38;7001027;28;20635;-74
2021/03/13 18:39:43;;;;;;;7.33;2.43;;;;;;;10.85;51.61;97680.63;6999851;28;20220;-73
2021/03/13 18:43:05;;;;;;;2.00;1.80;;;;;;;11.09;51.18;97681.47;7000238;28;20225;-74
2021/03/13 18:46:28;;;;;;;2.83;1.90;;;;;;;10.48;52.26;97671.09;7000148;28;20576;-73
2021/03/13 18:49:50;;;;;;;3.03;2.20;;;;;;;10.91;51.08;97686.94;6999960;28;20209;-74
2021/03/13 18:53:11;;;;;;;2.20;2.00;;;;;;;10.75;51.98;97698.44;6999616;28;20293;-73
2021/03/13 18:56:32;;;;;;;3.57;1.93;;;;;;;10.14;53.65;97684.47;6999036;28;20198;-73
2021/03/13 18:59:55;;;;;;;3.80;2.10;;;;;;;10.39;53.10;97688.63;6989740;28;20202;-73
2021/03/13 19:03:17;;;;;;;2.63;2.13;;;;;;;10.19;54.14;97687.28;6977657;28;20271;-73
2021/03/13 19:06:39;;;;;;;4.57;2.07;;;;;;;10.20;55.01;97710.47;6998911;28;20275;-73
2021/03/13 19:10:00;;;;;;;2.80;1.77;;;;;;;10.18;54.08;97648.78;6997219;28;20202;-73
2021/03/13 19:13:21;;;;;;;4.17;2.17;;;;;;;10.74;53.64;97684.13;6975223;28;20225;-73
2021/03/13 19:16:43;;;;;;;2.70;2.53;;;;;;;11.10;52.56;97664.22;6974434;28;20255;-73
2021/03/13 19:20:06;;;;;;;3.47;3.17;;;;;;;11.14;51.80;97657.28;6971702;28;20219;-73
2021/03/13 19:23:27;;;;;;;2.30;2.10;;;;;;;11.38;51.56;97672.38;6971814;28;20219;-74
2021/03/13 19:26:49;;;;;;;3.80;2.27;;;;;;;11.72;50.19;97685.00;6998695;28;20218;-74
2021/03/13 19:30:11;;;;;;;3.57;2.10;;;;;;;11.32;51.00;97659.81;6981737;28;20271;-73
2021/03/13 19:33:33;;;;;;;2.20;2.10;;;;;;;11.44;50.66;97660.63;6972883;28;20206;-73
2021/03/13 19:36:54;;;;;;;3.23;2.30;;;;;;;11.23;51.45;97670.16;6971497;28;20211;-74
2021/03/13 19:40:16;;;;;;;3.77;2.73;;;;;;;11.47;50.17;97670.94;6971947;28;20210;-74
2021/03/13 19:43:37;;;;;;;5.67;2.53;;;;;;;11.32;50.81;97622.03;6983194;28;20205;-77
2021/03/13 19:46:59;;;;;;;2.30;2.10;;;;;;;10.56;50.16;97549.47;6984557;28;20245;-76
2021/03/13 19:50:21;;;;;;;7.03;2.73;;;;;;;11.29;49.97;97612.59;6988749;28;20210;-78
2021/03/13 19:53:42;;;;;;;3.43;2.53;;;;;;;11.30;50.49;97665.47;6985867;28;20799;-76
2021/03/13 19:57:04;;;;;;;4.93;3.07;;;;;;;11.02;51.00;97651.91;6971338;28;20202;-77
2021/03/13 20:00:27;;;;;;;5.03;3.70;;;;;;;11.18;51.02;97621.50;6972130;28;20228;-77
2021/03/13 20:03:49;;;;;;;4.77;3.20;;;;;;;10.88;49.98;97531.03;6971315;28;20230;-78
2021/03/13 20:07:11;;;;;;;4.27;2.50;;;;;;;11.19;50.73;97638.50;6971365;28;20678;-78
2021/03/13 20:10:38;;;;;;;4.27;3.87;;;;;;;10.14;51.42;97479.78;6972425;28;20285;-78
2021/03/13 20:13:59;;;;;;;2.73;2.30;;;;;;;10.23;52.19;97553.81;6971902;28;20226;-78
2021/03/13 20:17:23;;;;;;;2.80;2.20;;;;;;;9.77;53.74;97513.31;6971231;28;20658;-79
2021/03/13 20:20:45;;;;;;;3.13;2.17;;;;;;;10.47;51.83;97571.63;6972047;28;20567;-78
2021/03/13 20:24:08;;;;;;;4.77;2.40;;;;;;;10.38;51.84;97555.00;6987127;28;20568;-79
2021/03/13 20:27:29;;;;;;;4.77;3.00;;;;;;;9.67;52.75;97464.63;6971369;28;20277;-78